Time;durP1;ratioP1;P1;durP2;ratioP2;P2;SDS_P1;SDS_P2;PMS_P1;PMS_P2;Temp;Humidity;BMP_temperature;BMP_pressure;BME280_temperature;BME280_humidity;BME280_pressure;Samples;Min_cycle;Max_cycle;Signal;HPM_P1;HPM_P2
2022/07/08 00:01:24;;;;;;;;;3.00;3.00;;;;;19.43;39.59;102595.44;5017515;28;46578;-67
2022/07/08 00:03:49;;;;;;;;;5.00;3.00;;;;;19.36;39.41;102585.81;5020807;28;45351;-67
2022/07/08 00:06:14;;;;;;;;;3.50;1.75;;;;;19.37;39.71;102595.56;5020675;28;45317;-67
2022/07/08 00:08:40;;;;;;;;;3.75;2.75;;;;;19.33;39.50;102584.09;5020831;28;45383;-67
2022/07/08 00:11:05;;;;;;;;;3.50;3.00;;;;;19.27;39.50;102578.91;5020524;28;46777;-67
2022/07/08 00:13:30;;;;;;;;;2.00;2.00;;;;;19.26;39.62;102586.94;5020799;28;45279;-67
2022/07/08 00:15:56;;;;;;;;;4.00;4.00;;;;;19.23;39.78;102584.31;5020660;28;45486;-67
2022/07/08 00:18:21;;;;;;;;;3.75;3.00;;;;;19.21;39.83;102589.69;5018971;28;45474;-67
2022/07/08 00:20:46;;;;;;;;;4.00;3.00;;;;;19.13;39.94;102580.97;5020377;28;45402;-67
2022/07/08 00:23:12;;;;;;;;;4.75;4.00;;;;;19.11;39.60;102578.34;5035962;28;45180;-67
2022/07/08 00:25:37;;;;;;;;;4.50;3.00;;;;;19.05;39.77;102583.81;5019570;28;45521;-67
2022/07/08 00:28:03;;;;;;;;;6.00;4.25;;;;;19.07;39.73;102591.75;5020617;28;45439;-67
2022/07/08 00:30:28;;;;;;;;;2.00;2.00;;;;;19.04;40.07;102589.16;5020314;28;46109;-66
2022/07/08 00:32:54;;;;;;;;;2.75;2.75;;;;;19.03;40.07;102588.31;5020325;28;45274;-66
2022/07/08 00:35:19;;;;;;;;;4.25;4.25;;;;;18.96;40.11;102584.00;5020586;28;45212;-67
2022/07/08 00:37:44;;;;;;;;;4.00;3.00;;;;;18.98;39.82;102588.38;5020589;28;45245;-67
2022/07/08 00:40:11;;;;;;;;;4.50;3.25;;;;;18.97;39.89;102591.09;5020238;28;46590;-66
2022/07/08 00:42:37;;;;;;;;;4.00;2.00;;;;;18.96;40.16;102589.31;5020559;28;45355;-67
2022/07/08 00:45:02;;;;;;;;;4.00;3.00;;;;;18.93;40.08;102590.25;5020301;28;45320;-67
2022/07/08 00:47:28;;;;;;;;;2.75;2.75;;;;;18.88;39.90;102572.56;5020244;28;45454;-67
2022/07/08 00:49:53;;;;;;;;;5.25;4.00;;;;;18.90;40.46;102586.75;5019375;28;46212;-67
2022/07/08 00:52:19;;;;;;;;;2.50;2.50;;;;;18.85;40.00;102584.16;5018518;28;45479;-67
2022/07/08 00:54:45;;;;;;;;;3.00;3.00;;;;;18.86;40.10;102588.59;5020356;28;45318;-66
2022/07/08 00:57:12;;;;;;;;;5.00;2.25;;;;;18.83;40.11;102583.34;5020416;28;45444;-66
2022/07/08 00:59:37;;;;;;;;;4.50;2.75;;;;;18.81;40.32;102583.34;5016276;28;45440;-66
2022/07/08 01:02:03;;;;;;;;;8.00;4.00;;;;;18.81;40.34;102599.31;5019874;28;45283;-66
2022/07/08 01:04:28;;;;;;;;;3.25;2.25;;;;;18.80;40.26;102597.59;5020007;28;45487;-66
2022/07/08 01:06:53;;;;;;;;;2.75;2.75;;;;;18.73;40.02;102587.97;5020137;28;45229;-67
2022/07/08 01:09:19;;;;;;;;;4.75;2.00;;;;;18.74;40.38;102602.16;5019963;28;46019;-70
2022/07/08 01:11:48;;;;;;;;;4.50;2.50;;;;;18.71;40.25;102603.06;5019940;28;45190;-71
2022/07/08 01:14:15;;;;;;;;;3.75;3.00;;;;;18.67;40.14;102601.38;5020044;28;45419;-70
2022/07/08 01:16:41;;;;;;;;;2.75;1.75;;;;;18.62;40.35;102600.59;5019826;28;45484;-67
2022/07/08 01:19:06;;;;;;;;;2.00;2.00;;;;;18.60;40.37;102605.06;5019749;28;46208;-67
2022/07/08 01:21:32;;;;;;;;;5.50;3.00;;;;;18.58;40.69;102606.88;5019747;28;45483;-67
2022/07/08 01:23:57;;;;;;;;;4.25;2.75;;;;;18.52;40.89;102607.88;5019976;28;45274;-66
2022/07/08 01:26:23;;;;;;;;;2.25;2.00;;;;;18.50;40.89;102612.34;5020010;28;45210;-67
2022/07/08 01:28:48;;;;;;;;;5.25;2.75;;;;;18.48;40.51;102620.34;5019521;28;46128;-67
2022/07/08 01:31:13;;;;;;;;;4.25;3.00;;;;;18.43;40.83;102611.56;5019566;28;45361;-67
2022/07/08 01:33:39;;;;;;;;;6.50;5.00;;;;;18.43;40.69;102626.69;5019882;28;45418;-67
2022/07/08 01:36:05;;;;;;;;;4.00;4.00;;;;;18.40;40.84;102621.41;5020768;28;45356;-67
2022/07/08 01:38:30;;;;;;;;;2.00;2.00;;;;;18.38;40.67;102620.53;5021998;28;45490;-67
2022/07/08 01:40:56;;;;;;;;;4.00;2.00;;;;;18.34;41.01;102614.41;5023225;28;45316;-69
2022/07/08 01:43:22;;;;;;;;;3.75;2.00;;;;;18.33;40.91;102620.63;5023378;28;45471;-70
2022/07/08 01:45:47;;;;;;;;;2.00;2.00;;;;;18.32;40.56;102618.88;5021674;28;45367;-70
2022/07/08 01:48:13;;;;;;;;;2.50;2.00;;;;;18.27;41.00;102615.41;5022623;28;45498;-70
2022/07/08 01:50:38;;;;;;;;;5.25;3.50;;;;;18.22;40.95;102615.47;5022894;28;45369;-70
2022/07/08 01:53:04;;;;;;;;;4.75;3.50;;;;;18.24;40.92;102616.34;5023160;28;45296;-70
2022/07/08 01:55:29;;;;;;;;;3.00;3.00;;;;;18.21;40.87;102620.81;5023030;28;45468;-70
2022/07/08 01:57:54;;;;;;;;;4.50;3.00;;;;;18.16;40.96;102619.13;5022767;28;47976;-70
2022/07/08 02:00:20;;;;;;;;;5.50;3.25;;;;;18.15;41.06;102628.00;5019715;28;45753;-70
2022/07/08 02:02:46;;;;;;;;;4.25;3.75;;;;;18.12;41.22;102622.72;5022489;28;45185;-69
2022/07/08 02:05:12;;;;;;;;;4.00;3.75;;;;;18.11;41.15;102631.63;5023016;28;45232;-69
2022/07/08 02:07:38;;;;;;;;;6.50;4.00;;;;;18.09;41.18;102630.75;5022583;28;46295;-69
2022/07/08 02:10:04;;;;;;;;;3.00;3.00;;;;;18.08;41.09;102626.34;5022800;28;45228;-67
2022/07/08 02:12:30;;;;;;;;;3.00;3.00;;;;;18.02;41.46;102622.00;5022798;28;45301;-66
2022/07/08 02:15:04;;;;;;;;;4.00;3.50;;;;;18.02;41.28;102627.34;5022617;28;45666;-65
2022/07/08 02:17:34;;;;;;;;;6.00;4.00;;;;;18.01;41.33;102630.88;5021679;28;45319;-65
2022/07/08 02:20:00;;;;;;;;;3.75;2.75;;;;;17.96;41.32;102626.53;5022697;28;45283;-65
2022/07/08 02:22:26;;;;;;;;;5.00;4.25;;;;;17.96;41.11;102632.75;5022423;28;45239;-65
2022/07/08 02:24:52;;;;;;;;;4.00;3.50;;;;;17.95;41.37;102630.09;5022724;28;45416;-65
2022/07/08 02:27:17;;;;;;;;;4.00;3.00;;;;;17.91;41.45;102631.91;5022223;28;45577;-65
2022/07/08 02:29:43;;;;;;;;;4.00;4.00;;;;;17.90;41.27;102627.47;5022654;28;45265;-65
2022/07/08 02:32:09;;;;;;;;;3.00;3.00;;;;;17.87;41.45;102620.44;5022247;28;45374;-65
2022/07/08 02:34:34;;;;;;;;;3.00;3.00;;;;;17.84;41.52;102630.22;5022405;28;45439;-67
2022/07/08 02:36:59;;;;;;;;;7.00;2.00;;;;;17.82;41.53;102619.63;5036678;28;46534;-68
2022/07/08 02:39:25;;;;;;;;;1.75;1.75;;;;;17.79;41.39;102617.00;5022423;28;45272;-68
2022/07/08 02:41:50;;;;;;;;;2.25;2.25;;;;;17.78;41.46;102614.38;5022513;28;45252;-69
2022/07/08 02:44:17;;;;;;;;;3.00;2.00;;;;;17.75;41.93;102612.63;5022441;28;46212;-68
2022/07/08 02:46:42;;;;;;;;;2.75;2.25;;;;;17.73;41.30;102616.22;5021781;28;46125;-68
2022/07/08 02:49:09;;;;;;;;;2.00;2.00;;;;;17.70;41.69;102615.34;5020983;28;45317;-68
2022/07/08 02:51:35;;;;;;;;;3.75;3.25;;;;;17.66;41.62;102612.75;5022253;28;45331;-66
2022/07/08 02:54:00;;;;;;;;;4.00;3.00;;;;;17.66;41.57;102612.75;5022079;28;45539;-65
2022/07/08 02:56:26;;;;;;;;;3.00;3.00;;;;;17.63;41.79;102610.16;5021847;28;46301;-65
2022/07/08 02:58:51;;;;;;;;;6.25;3.50;;;;;17.62;41.79;102611.94;5022077;28;45248;-64
2022/07/08 03:01:17;;;;;;;;;5.50;2.50;;;;;17.59;41.53;102611.97;5018643;28;45236;-64
2022/07/08 03:03:42;;;;;;;;;6.00;4.75;;;;;17.55;41.96;102608.47;5021977;28;45226;-64
2022/07/08 03:06:07;;;;;;;;;2.75;2.75;;;;;17.52;41.92;102605.88;5020540;28;45571;-64
2022/07/08 03:08:33;;;;;;;;;4.25;2.00;;;;;17.55;41.62;102612.91;5021950;28;45251;-64
2022/07/08 03:10:58;;;;;;;;;3.50;3.25;;;;;17.52;41.66;102610.28;5021837;28;45239;-64
2022/07/08 03:13:23;;;;;;;;;4.00;3.00;;;;;17.50;41.88;102631.56;5022260;28;45232;-64
2022/07/08 03:15:49;;;;;;;;;5.50;3.00;;;;;17.48;41.90;102621.88;5021494;28;46128;-64
2022/07/08 03:18:14;;;;;;;;;4.25;4.25;;;;;17.46;42.10;102626.31;5021514;28;45170;-64
2022/07/08 03:20:39;;;;;;;;;3.00;3.00;;;;;17.45;42.13;102637.88;5021587;28;45216;-64
2022/07/08 03:23:05;;;;;;;;;3.00;2.50;;;;;17.43;42.16;102634.34;5021910;28;45221;-64
2022/07/08 03:25:30;;;;;;;;;2.75;2.50;;;;;17.40;42.03;102643.22;5021622;28;46318;-64
2022/07/08 03:27:56;;;;;;;;;4.50;3.00;;;;;17.37;41.79;102638.84;5021306;28;45430;-64
2022/07/08 03:30:22;;;;;;;;;2.75;2.00;;;;;17.38;42.05;102637.94;5021670;28;45331;-64
2022/07/08 03:32:47;;;;;;;;;3.50;3.25;;;;;17.35;42.26;102629.13;5019302;28;45336;-64
2022/07/08 03:35:13;;;;;;;;;4.25;3.50;;;;;17.28;42.19;102633.66;5021487;28;46033;-64
2022/07/08 03:37:42;;;;;;;;;2.00;2.00;;;;;17.33;41.95;102644.19;5021423;28;45321;-64
2022/07/08 03:42:53;;;;;;;;;2.50;2.50;;;;;17.29;41.88;102650.47;5021208;28;45228;-64
2022/07/08 03:45:18;;;;;;;;;3.75;2.75;;;;;17.26;42.13;102650.47;5021058;28;45217;-65
2022/07/08 03:47:44;;;;;;;;;3.50;3.00;;;;;17.26;42.21;102655.78;5020756;28;45236;-65
2022/07/08 03:50:09;;;;;;;;;3.00;2.00;;;;;17.24;42.21;102653.16;5021184;28;45238;-64
2022/07/08 03:52:35;;;;;;;;;2.75;2.75;;;;;17.23;42.14;102654.03;5021263;28;45184;-65
2022/07/08 03:55:00;;;;;;;;;2.00;2.00;;;;;17.21;42.30;102661.19;5020898;28;46118;-64
2022/07/08 03:57:25;;;;;;;;;4.50;4.00;;;;;17.20;42.19;102660.28;5021189;28;45355;-64
2022/07/08 03:59:51;;;;;;;;;4.50;3.00;;;;;17.19;42.43;102665.63;5017493;28;45506;-64
2022/07/08 04:02:16;;;;;;;;;9.50;4.00;;;;;17.15;42.48;102667.44;5020857;28;45516;-64
2022/07/08 04:04:42;;;;;;;;;2.75;1.50;;;;;17.14;42.29;102665.66;5020539;28;46433;-65
2022/07/08 04:07:07;;;;;;;;;3.50;2.25;;;;;17.14;42.36;102667.44;5021087;28;45307;-65
2022/07/08 04:09:32;;;;;;;;;8.50;5.25;;;;;17.13;42.44;102666.59;5020840;28;45323;-64
2022/07/08 04:11:58;;;;;;;;;5.00;3.75;;;;;17.11;42.57;102671.03;5020739;28;49112;-64
2022/07/08 04:14:23;;;;;;;;;3.00;3.00;;;;;17.10;42.59;102669.25;5020817;28;45931;-64
2022/07/08 04:16:48;;;;;;;;;3.50;3.50;;;;;17.07;42.29;102677.28;5020590;28;45330;-64
2022/07/08 04:19:14;;;;;;;;;5.25;4.25;;;;;17.02;42.84;102674.66;5020859;28;45304;-64
2022/07/08 04:21:40;;;;;;;;;6.50;4.00;;;;;17.03;42.66;102681.72;5020700;28;45521;-64
2022/07/08 04:24:05;;;;;;;;;5.50;4.25;;;;;17.02;42.77;102682.63;5020546;28;47078;-65
2022/07/08 04:26:31;;;;;;;;;5.00;4.00;;;;;17.01;42.61;102672.03;5020548;28;45581;-65
2022/07/08 04:29:00;;;;;;;;;4.50;4.00;;;;;17.00;42.79;102675.56;5020648;28;45316;-65
2022/07/08 04:31:27;;;;;;;;;4.00;3.25;;;;;16.98;42.82;102666.72;5020306;28;45289;-65
2022/07/08 04:33:53;;;;;;;;;6.75;4.25;;;;;16.96;42.66;102676.50;5020330;28;45364;-65
2022/07/08 04:36:22;;;;;;;;;4.25;3.25;;;;;16.97;42.52;102691.56;5020439;28;45323;-66
2022/07/08 04:38:48;;;;;;;;;4.00;4.00;;;;;16.96;42.69;102690.66;5020583;28;45166;-66
2022/07/08 04:41:13;;;;;;;;;7.25;3.75;;;;;16.95;42.82;102686.22;5020469;28;45551;-66
2022/07/08 04:43:38;;;;;;;;;4.00;4.00;;;;;16.95;42.98;102682.72;5020272;28;45403;-66
2022/07/08 04:46:04;;;;;;;;;5.50;5.00;;;;;16.94;42.95;102679.16;5020090;28;45173;-66
2022/07/08 04:48:30;;;;;;;;;4.00;3.00;;;;;16.95;42.62;102688.88;5019878;28;45451;-66
2022/07/08 04:50:56;;;;;;;;;7.00;4.75;;;;;16.94;42.77;102692.44;5020257;28;45482;-67
2022/07/08 04:53:22;;;;;;;;;4.25;4.00;;;;;16.93;42.94;102685.38;5019976;28;46094;-67
2022/07/08 04:55:48;;;;;;;;;4.00;4.00;;;;;16.91;43.04;102681.84;5018650;28;45283;-67
2022/07/08 04:58:13;;;;;;;;;3.50;3.00;;;;;16.93;42.93;102689.78;5020235;28;45311;-67
2022/07/08 05:00:38;;;;;;;;;5.25;4.00;;;;;16.94;43.13;102696.88;5016355;28;45254;-68
2022/07/08 05:03:04;;;;;;;;;5.50;3.75;;;;;16.92;43.09;102688.03;5019478;28;45477;-68
2022/07/08 05:05:30;;;;;;;;;3.00;3.00;;;;;16.93;42.82;102693.34;5020454;28;45367;-68
2022/07/08 05:07:57;;;;;;;;;3.50;3.50;;;;;16.95;43.18;102702.16;5020067;28;45330;-68
2022/07/08 05:10:22;;;;;;;;;4.25;3.50;;;;;16.92;42.97;102686.28;5019651;28;45418;-68
2022/07/08 05:12:49;;;;;;;;;4.25;3.00;;;;;16.96;43.00;102695.09;5019498;28;45430;-68
2022/07/08 05:15:15;;;;;;;;;4.25;4.25;;;;;16.96;43.01;102692.44;5020097;28;45268;-68
2022/07/08 05:17:40;;;;;;;;;4.00;3.00;;;;;16.95;42.90;102699.50;5019764;28;45216;-67
2022/07/08 05:20:08;;;;;;;;;3.25;3.25;;;;;16.99;43.32;102703.03;5019974;28;45339;-67
2022/07/08 05:22:34;;;;;;;;;4.50;3.00;;;;;16.98;43.26;102710.13;5019670;28;46139;-68
2022/07/08 05:24:59;;;;;;;;;4.25;4.00;;;;;16.95;43.29;102701.28;5019801;28;45363;-67
2022/07/08 05:27:24;;;;;;;;;4.00;3.50;;;;;16.99;43.09;102716.28;5019954;28;45323;-67
2022/07/08 05:29:50;;;;;;;;;4.25;3.00;;;;;17.01;43.05;102710.06;5019792;28;46519;-68
2022/07/08 05:32:15;;;;;;;;;5.00;4.00;;;;;17.02;43.16;102709.19;5019219;28;46447;-67
2022/07/08 05:34:41;;;;;;;;;6.00;4.50;;;;;17.03;43.32;102713.59;5019828;28;45331;-68
2022/07/08 05:37:07;;;;;;;;;5.50;5.00;;;;;17.04;43.44;102710.06;5019788;28;45289;-67
2022/07/08 05:39:33;;;;;;;;;4.75;4.75;;;;;17.04;43.24;102710.06;5019681;28;45236;-71
2022/07/08 05:41:58;;;;;;;;;5.75;2.50;;;;;17.09;43.25;102720.63;5034737;28;48035;-70
2022/07/08 05:44:24;;;;;;;;;5.75;4.00;;;;;17.08;43.31;102710.00;5019701;28;45201;-70
2022/07/08 05:46:49;;;;;;;;;5.00;4.00;;;;;17.10;43.06;102711.75;5019208;28;45226;-69
2022/07/08 05:49:14;;;;;;;;;6.50;4.50;;;;;17.16;43.33;102716.13;5019451;28;45207;-67
2022/07/08 05:51:40;;;;;;;;;4.75;4.00;;;;;17.16;43.01;102713.47;5017289;28;56864;-67
2022/07/08 05:54:05;;;;;;;;;7.00;5.00;;;;;17.20;43.65;102704.56;5019562;28;45301;-62
2022/07/08 05:56:30;;;;;;;;;6.00;4.25;;;;;17.24;43.25;102713.41;5004885;28;45901;-63
2022/07/08 05:58:56;;;;;;;;;6.25;4.50;;;;;17.23;42.96;102701.88;5013837;28;45552;-63
2022/07/08 06:01:21;;;;;;;;;8.50;6.00;;;;;17.26;43.21;102711.59;5017409;28;46010;-63
2022/07/08 06:03:46;;;;;;;;;5.25;4.25;;;;;17.32;43.49;102719.50;5014223;28;45295;-63
2022/07/08 06:06:12;;;;;;;;;7.75;4.00;;;;;17.33;43.46;102714.19;5018528;28;45320;-64
2022/07/08 06:08:37;;;;;;;;;6.75;3.50;;;;;17.38;43.29;102716.75;5019321;28;45390;-65
2022/07/08 06:11:03;;;;;;;;;6.75;4.75;;;;;17.41;43.35;102714.09;5018639;28;45598;-63
2022/07/08 06:13:28;;;;;;;;;5.00;4.25;;;;;17.45;43.40;102709.63;5014514;28;45364;-64
2022/07/08 06:15:54;;;;;;;;;5.75;4.75;;;;;17.49;43.15;102701.56;5017065;28;45419;-66
2022/07/08 06:18:19;;;;;;;;;5.50;3.75;;;;;17.53;43.53;102705.06;5019000;28;45306;-65
2022/07/08 06:20:45;;;;;;;;;8.00;5.75;;;;;17.54;43.52;102705.06;5018537;28;46395;-65
2022/07/08 06:23:10;;;;;;;;;4.25;4.00;;;;;17.58;43.30;102713.88;5019899;28;45333;-61
2022/07/08 06:25:36;;;;;;;;;7.00;6.50;;;;;17.63;43.42;102716.47;5022163;28;45575;-67
2022/07/08 06:28:02;;;;;;;;;7.75;6.00;;;;;17.63;43.28;102706.72;5022342;28;45559;-67
2022/07/08 06:30:27;;;;;;;;;5.00;5.00;;;;;17.72;43.51;102719.00;5011508;28;47341;-67
2022/07/08 06:32:52;;;;;;;;;5.75;5.75;;;;;17.75;43.45;102719.00;5021978;28;45217;-67
2022/07/08 06:35:18;;;;;;;;;8.00;5.00;;;;;17.78;43.23;102715.41;5021938;28;45549;-67
2022/07/08 06:37:43;;;;;;;;;5.00;4.00;;;;;17.83;43.31;102718.88;5021174;28;45267;-67
2022/07/08 06:40:09;;;;;;;;;10.50;6.00;;;;;17.86;43.44;102722.38;5021822;28;45302;-67
2022/07/08 06:42:34;;;;;;;;;7.00;4.75;;;;;17.92;43.33;102726.72;5022101;28;45184;-67
2022/07/08 06:45:00;;;;;;;;;5.75;5.75;;;;;17.97;43.38;102732.03;5022250;28;45766;-67
2022/07/08 06:47:25;;;;;;;;;7.00;5.00;;;;;17.98;43.30;102725.81;5021614;28;45502;-67
2022/07/08 06:49:52;;;;;;;;;7.00;3.75;;;;;18.04;43.29;102728.38;5021567;28;45583;-64
2022/07/08 06:52:18;;;;;;;;;6.75;4.50;;;;;18.06;43.48;102728.34;5037435;28;45304;-64
2022/07/08 06:54:43;;;;;;;;;7.00;4.75;;;;;18.11;43.32;102724.75;5022066;28;45366;-64
2022/07/08 06:57:09;;;;;;;;;9.50;5.75;;;;;18.13;43.21;102720.25;5022043;28;45311;-64
2022/07/08 06:59:38;;;;;;;;;6.25;5.25;;;;;18.19;43.26;102730.81;5021892;28;45503;-64
2022/07/08 07:02:04;;;;;;;;;7.75;5.25;;;;;18.23;43.19;102728.13;5008414;28;45481;-63
2022/07/08 07:04:30;;;;;;;;;7.75;5.75;;;;;18.26;43.28;102734.25;5021503;28;45484;-66
2022/07/08 07:06:56;;;;;;;;;6.25;5.00;;;;;18.27;43.25;102720.06;5021908;28;45176;-59
2022/07/08 07:09:21;;;;;;;;;6.00;5.25;;;;;18.30;43.37;102725.34;5021240;28;46127;-59
2022/07/08 07:11:47;;;;;;;;;11.25;5.00;;;;;18.37;43.35;102722.59;5021772;28;45327;-59
2022/07/08 07:14:12;;;;;;;;;8.25;6.25;;;;;18.41;43.14;102729.63;5021738;28;45483;-58
2022/07/08 07:16:37;;;;;;;;;5.25;4.00;;;;;18.41;43.20;102730.47;5020988;28;49912;-59
2022/07/08 07:19:03;;;;;;;;;5.00;5.00;;;;;18.46;43.09;102727.75;5021612;28;46264;-58
2022/07/08 07:21:29;;;;;;;;;6.25;5.00;;;;;18.48;43.35;102732.16;5021446;28;45352;-58
2022/07/08 07:23:54;;;;;;;;;5.75;4.75;;;;;18.49;43.24;102725.94;5021628;28;45316;-58
2022/07/08 07:26:20;;;;;;;;;10.00;6.75;;;;;18.54;43.06;102724.97;5021405;28;45460;-58
2022/07/08 07:28:45;;;;;;;;;5.00;5.00;;;;;18.53;43.03;102729.44;5021426;28;46868;-58
2022/07/08 07:31:10;;;;;;;;;7.50;6.25;;;;;18.58;42.92;102732.88;5020932;28;45312;-58
2022/07/08 07:33:36;;;;;;;;;9.25;5.25;;;;;18.59;42.88;102728.44;5021165;28;45308;-58
2022/07/08 07:36:01;;;;;;;;;6.75;6.50;;;;;18.59;43.36;102736.41;5021326;28;45462;-59
2022/07/08 07:38:27;;;;;;;;;7.50;4.75;;;;;18.63;42.76;102740.81;5021402;28;45417;-58
2022/07/08 07:40:52;;;;;;;;;8.00;6.00;;;;;18.65;43.17;102734.56;5021198;28;45279;-58
2022/07/08 07:43:17;;;;;;;;;5.75;5.75;;;;;18.68;42.84;102744.28;5021522;28;45245;-59
2022/07/08 07:45:43;;;;;;;;;6.50;4.25;;;;;18.69;42.84;102740.69;5021030;28;45958;-59
2022/07/08 07:48:08;;;;;;;;;6.00;5.00;;;;;18.72;42.79;102738.00;5020886;28;45996;-59
2022/07/08 07:50:34;;;;;;;;;8.25;7.00;;;;;18.76;42.71;102739.69;5020899;28;45336;-59
2022/07/08 07:52:59;;;;;;;;;9.25;6.50;;;;;18.77;42.96;102736.13;5021431;28;45152;-58
2022/07/08 07:55:24;;;;;;;;;7.50;5.75;;;;;18.80;43.10;102737.84;5021272;28;45396;-59
2022/07/08 07:57:50;;;;;;;;;5.25;5.00;;;;;18.84;42.67;102747.53;5020982;28;46147;-59
2022/07/08 08:00:16;;;;;;;;;5.75;5.25;;;;;18.87;42.89;102733.28;5021017;28;45205;-59
2022/07/08 08:02:42;;;;;;;;;6.50;5.25;;;;;18.90;42.47;102731.47;5020748;28;45327;-59
2022/07/08 08:05:09;;;;;;;;;6.25;5.25;;;;;18.93;42.70;102727.88;5020919;28;45625;-58
2022/07/08 08:07:37;;;;;;;;;5.25;5.25;;;;;18.96;42.81;102726.06;5015739;28;46988;-59
2022/07/08 08:10:03;;;;;;;;;6.25;5.00;;;;;19.00;42.68;102729.53;5020866;28;45172;-58
2022/07/08 08:12:28;;;;;;;;;8.25;5.75;;;;;19.04;42.45;102735.69;5020606;28;45166;-59
2022/07/08 08:14:54;;;;;;;;;7.25;7.25;;;;;19.09;42.48;102728.50;5021041;28;45225;-59
2022/07/08 08:17:19;;;;;;;;;8.00;6.25;;;;;19.12;42.35;102737.31;5020212;28;46157;-59
2022/07/08 08:19:44;;;;;;;;;9.75;8.00;;;;;19.17;42.66;102727.44;5020782;28;46991;-58
2022/07/08 08:22:10;;;;;;;;;7.75;6.25;;;;;19.19;42.92;102732.75;5020951;28;45308;-59
2022/07/08 08:24:35;;;;;;;;;10.00;7.25;;;;;19.24;42.26;102738.00;5019816;28;45236;-59
2022/07/08 08:27:00;;;;;;;;;10.25;8.25;;;;;19.26;42.53;102726.38;5035904;28;46956;-59
2022/07/08 08:29:26;;;;;;;;;7.50;6.00;;;;;19.28;42.48;102724.59;5020610;28;45392;-58
2022/07/08 08:31:51;;;;;;;;;7.50;6.25;;;;;19.33;42.57;102725.38;5020345;28;45328;-59
2022/07/08 08:34:16;;;;;;;;;6.50;6.50;;;;;19.37;42.57;102728.84;5020621;28;45478;-59
2022/07/08 08:36:42;;;;;;;;;7.00;6.25;;;;;19.43;42.71;102727.84;5020332;28;46069;-58
2022/07/08 08:39:07;;;;;;;;;7.00;5.75;;;;;19.46;42.18;102727.78;5036007;28;45336;-59
2022/07/08 08:41:35;;;;;;;;;8.00;7.00;;;;;19.50;42.34;102718.81;5019325;28;45885;-59
2022/07/08 08:44:00;;;;;;;;;5.25;5.00;;;;;19.54;42.59;102707.16;5020508;28;45391;-59
2022/07/08 08:46:25;;;;;;;;;6.50;6.50;;;;;19.60;41.68;102708.84;5019005;28;45429;-59
2022/07/08 08:48:56;;;;;;;;;5.75;5.75;;;;;19.62;42.42;102707.91;5020193;28;45247;-58
2022/07/08 08:51:21;;;;;;;;;11.00;9.25;;;;;19.69;42.07;102708.63;5019165;28;45414;-59
2022/07/08 08:53:47;;;;;;;;;7.00;6.00;;;;;19.74;42.00;102701.41;5020306;28;45292;-59
2022/07/08 08:56:15;;;;;;;;;6.75;6.25;;;;;19.76;42.16;102694.25;5018935;28;46974;-59
2022/07/08 08:58:46;;;;;;;;;7.50;5.50;;;;;19.84;42.12;102698.59;5020362;28;45324;-59
2022/07/08 09:01:16;;;;;;;;;9.00;7.25;;;;;19.88;41.77;102697.59;5019238;28;45464;-59
2022/07/08 09:03:42;;;;;;;;;9.50;7.25;;;;;19.94;42.26;102697.47;5020083;28;45557;-59
2022/07/08 09:06:07;;;;;;;;;8.25;6.50;;;;;19.99;41.68;102706.25;5020017;28;45188;-59
2022/07/08 09:08:33;;;;;;;;;10.25;9.50;;;;;20.03;42.06;102699.06;5014908;28;45437;-58
2022/07/08 09:10:59;;;;;;;;;10.25;7.25;;;;;20.07;42.08;102696.25;5020017;28;45346;-59
2022/07/08 09:13:25;;;;;;;;;13.50;13.50;;;;;20.14;41.84;102686.34;5020239;28;45331;-59
2022/07/08 09:15:57;;;;;;;;;15.50;12.00;;;;;20.19;41.54;102688.88;5019413;28;45364;-59
2022/07/08 09:18:30;;;;;;;;;12.00;10.00;;;;;20.24;41.93;102681.66;5018670;28;45235;-59
2022/07/08 09:20:57;;;;;;;;;11.50;9.75;;;;;20.28;41.82;102680.66;5019790;28;45417;-59
2022/07/08 09:23:31;;;;;;;;;9.00;7.50;;;;;20.34;41.28;102680.50;5019853;28;45396;-59
2022/07/08 09:25:58;;;;;;;;;9.25;7.00;;;;;20.41;41.70;102682.09;5019861;28;45443;-59
2022/07/08 09:28:36;;;;;;;;;10.75;8.25;;;;;20.46;41.52;102674.88;5019599;28;45251;-59
2022/07/08 09:31:07;;;;;;;;;13.00;8.75;;;;;20.55;41.79;102670.19;5019372;28;45484;-59
2022/07/08 09:33:33;;;;;;;;;9.00;8.25;;;;;20.62;41.05;102680.66;5019635;28;45306;-59
2022/07/08 09:36:00;;;;;;;;;8.50;7.25;;;;;20.68;41.65;102674.31;5034095;28;45450;-59
2022/07/08 09:38:27;;;;;;;;;7.75;6.75;;;;;20.73;41.04;102666.22;5019672;28;45381;-59
2022/07/08 09:40:58;;;;;;;;;12.25;8.00;;;;;20.82;40.96;102682.00;5019702;28;45272;-59
2022/07/08 09:43:25;;;;;;;;;10.00;6.00;;;;;20.88;41.11;102668.47;5019459;28;45315;-59
2022/07/08 09:45:50;;;;;;;;;7.00;6.75;;;;;20.97;40.98;102669.13;5019209;28;45456;-59
2022/07/08 09:48:16;;;;;;;;;7.25;6.00;;;;;21.03;41.19;102661.81;5019232;28;45310;-59
2022/07/08 09:50:46;;;;;;;;;7.50;6.00;;;;;21.09;41.31;102669.66;5019822;28;45347;-59
2022/07/08 09:53:15;;;;;;;;;7.25;7.25;;;;;21.22;40.67;102670.19;5019274;28;45518;-59
2022/07/08 09:55:43;;;;;;;;;4.50;4.50;;;;;21.29;40.55;102670.03;5019311;28;46175;-59
2022/07/08 09:58:11;;;;;;;;;7.50;6.25;;;;;21.38;40.92;102675.97;5021591;28;45413;-59
2022/07/08 10:00:37;;;;;;;;;6.00;6.00;;;;;21.47;40.61;102677.50;5023013;28;45313;-59
2022/07/08 10:03:06;;;;;;;;;7.25;7.25;;;;;21.55;40.57;102669.25;5022225;28;45310;-59
2022/07/08 10:05:31;;;;;;;;;9.50;7.50;;;;;21.65;40.41;102676.09;5022735;28;46462;-60
2022/07/08 10:07:57;;;;;;;;;13.50;12.00;;;;;21.73;40.75;102671.38;5017521;28;45498;-59
2022/07/08 10:10:24;;;;;;;;;6.75;6.00;;;;;21.84;40.49;102670.19;5022934;28;45289;-59
2022/07/08 10:12:55;;;;;;;;;34.00;30.50;;;;;21.91;39.83;102658.34;5022650;28;45398;-59
2022/07/08 10:15:22;;;;;;;;;5.50;5.50;;;;;22.02;40.21;102656.19;5022778;28;46305;-59
2022/07/08 10:17:49;;;;;;;;;6.25;6.25;;;;;22.13;40.16;102660.34;5022186;28;45344;-59
2022/07/08 10:20:17;;;;;;;;;10.50;7.50;;;;;22.25;40.12;102662.63;5022660;28;45330;-59
2022/07/08 10:22:46;;;;;;;;;8.00;5.50;;;;;22.37;40.08;102661.38;5020774;28;45812;-59
2022/07/08 10:25:13;;;;;;;;;8.75;6.25;;;;;22.47;39.97;102659.25;5022514;28;45422;-59
2022/07/08 10:27:39;;;;;;;;;9.00;6.50;;;;;22.59;40.04;102656.16;5022580;28;45322;-59
2022/07/08 10:30:22;;;;;;;;;9.00;7.75;;;;;22.72;39.81;102664.63;5021205;28;45349;-59
2022/07/08 10:32:48;;;;;;;;;9.25;6.50;;;;;22.83;39.88;102662.44;5022087;28;45495;-59
2022/07/08 10:35:18;;;;;;;;;7.50;7.50;;;;;22.97;39.63;102656.59;5022098;28;46272;-59
2022/07/08 10:38:00;;;;;;;;;5.75;5.75;;;;;23.12;39.56;102657.84;5021238;28;45275;-60
2022/07/08 10:40:37;;;;;;;;;9.50;8.25;;;;;23.27;39.64;102661.78;5022265;28;45374;-60
2022/07/08 10:43:19;;;;;;;;;8.50;7.00;;;;;23.45;39.34;102662.03;5022274;28;45208;-60
2022/07/08 10:45:59;;;;;;;;;7.00;6.00;;;;;23.63;39.31;102652.38;5021885;28;46214;-60
2022/07/08 10:49:01;;;;;;;;;6.25;6.00;;;;;23.86;39.23;102657.69;5021896;28;45256;-61
2022/07/08 10:51:26;;;;;;;;;7.75;6.50;;;;;24.16;39.23;102654.72;5015027;28;45264;-60
2022/07/08 10:54:01;;;;;;;;;4.00;4.00;;;;;24.58;39.97;102650.28;5022200;28;45459;-60
2022/07/08 10:56:59;;;;;;;;;5.25;5.25;;;;;25.27;39.93;102651.69;5021970;28;46170;-60
2022/07/08 10:59:32;;;;;;;;;5.50;5.00;;;;;25.97;40.36;102651.09;5037157;28;45186;-60
2022/07/08 11:02:05;;;;;;;;;7.25;6.50;;;;;26.72;40.38;102650.94;5021743;28;45488;-60
2022/07/08 11:04:33;;;;;;;;;3.25;2.75;;;;;27.46;40.63;102644.28;5021739;28;45314;-60
2022/07/08 11:07:37;;;;;;;;;7.25;6.50;;;;;28.33;40.57;102642.03;5019717;28;47095;-59
2022/07/08 11:10:06;;;;;;;;;7.25;7.25;;;;;29.19;40.36;102647.56;5009978;28;45184;-60
2022/07/08 11:12:44;;;;;;;;;5.75;5.75;;;;;30.01;40.44;102654.06;5021721;28;45521;-60
2022/07/08 11:15:10;;;;;;;;;5.00;4.25;;;;;30.85;40.62;102643.81;5022026;28;45324;-60
2022/07/08 11:17:37;;;;;;;;;5.00;4.50;;;;;31.68;40.16;102647.81;5021026;28;45322;-60
2022/07/08 11:20:14;;;;;;;;;7.75;7.00;;;;;32.54;39.03;102645.81;5021846;28;45268;-60
2022/07/08 11:22:41;;;;;;;;;6.75;4.25;;;;;33.34;39.19;102650.34;5021677;28;45388;-60
2022/07/08 11:25:10;;;;;;;;;5.25;5.25;;;;;34.12;38.88;102654.84;5021443;28;45502;-60